sensor_id;sensor_type;location;lat;lon;timestamp;pressure;altitude;pressure_sealevel;temperature
57468;BMP280;43311;51.196;7.518;2024-01-30T04:32:50;97931.03;;;6.64
57468;BMP280;43311;51.196;7.518;2024-01-30T04:35:15;97906.50;;;6.42
57468;BMP280;43311;51.196;7.518;2024-01-30T04:37:41;97928.66;;;6.55
57468;BMP280;43311;51.196;7.518;2024-01-30T04:40:06;97926.41;;;6.54
57468;BMP280;43311;51.196;7.518;2024-01-30T04:42:32;97926.34;;;6.50
57468;BMP280;43311;51.196;7.518;2024-01-30T04:44:57;97932.41;;;6.54
57468;BMP280;43311;51.196;7.518;2024-01-30T04:47:22;97930.47;;;6.51
57468;BMP280;43311;51.196;7.518;2024-01-30T04:49:48;97924.50;;;6.51
57468;BMP280;43311;51.196;7.518;2024-01-30T04:52:13;97920.34;;;6.46
57468;BMP280;43311;51.196;7.518;2024-01-30T04:54:38;97904.88;;;6.34
57468;BMP280;43311;51.196;7.518;2024-01-30T04:57:04;97935.97;;;6.46
57468;BMP280;43311;51.196;7.518;2024-01-30T04:59:33;97911.59;;;6.35
57468;BMP280;43311;51.196;7.518;2024-01-30T05:01:59;97923.53;;;6.36
57468;BMP280;43311;51.196;7.518;2024-01-30T05:04:24;97920.63;;;6.41
57468;BMP280;43311;51.196;7.518;2024-01-30T05:06:49;97922.50;;;6.41
57468;BMP280;43311;51.196;7.518;2024-01-30T05:09:15;97912.09;;;6.44
57468;BMP280;43311;51.196;7.518;2024-01-30T05:11:41;97917.31;;;6.44
57468;BMP280;43311;51.196;7.518;2024-01-30T05:14:07;97924.16;;;6.52
57468;BMP280;43311;51.196;7.518;2024-01-30T05:16:32;97919.19;;;6.44
57468;BMP280;43311;51.196;7.518;2024-01-30T05:18:58;97926.50;;;6.38
57468;BMP280;43311;51.196;7.518;2024-01-30T05:21:24;97918.25;;;6.33
57468;BMP280;43311;51.196;7.518;2024-01-30T05:23:50;97932.56;;;6.42
57468;BMP280;43311;51.196;7.518;2024-01-30T05:26:15;97917.09;;;6.30
57468;BMP280;43311;51.196;7.518;2024-01-30T05:28:41;97922.94;;;6.24
57468;BMP280;43311;51.196;7.518;2024-01-30T05:31:06;97938.38;;;6.36
57468;BMP280;43311;51.196;7.518;2024-01-30T05:33:31;97918.53;;;6.28
57468;BMP280;43311;51.196;7.518;2024-01-30T05:35:57;97925.19;;;6.25
57468;BMP280;43311;51.196;7.518;2024-01-30T05:38:22;97947.53;;;6.26
57468;BMP280;43311;51.196;7.518;2024-01-30T05:40:48;97927.25;;;6.16
57468;BMP280;43311;51.196;7.518;2024-01-30T05:43:13;97921.78;;;6.03
57468;BMP280;43311;51.196;7.518;2024-01-30T05:45:38;97935.75;;;6.13
57468;BMP280;43311;51.196;7.518;2024-01-30T05:48:04;97936.09;;;6.12
57468;BMP280;43311;51.196;7.518;2024-01-30T05:50:30;97929.31;;;6.08
57468;BMP280;43311;51.196;7.518;2024-01-30T05:52:55;97920.97;;;5.99
57468;BMP280;43311;51.196;7.518;2024-01-30T05:55:21;97908.56;;;5.92
57468;BMP280;43311;51.196;7.518;2024-01-30T05:57:46;97916.56;;;6.03
57468;BMP280;43311;51.196;7.518;2024-01-30T06:00:12;97927.38;;;6.05
57468;BMP280;43311;51.196;7.518;2024-01-30T06:02:38;97908.22;;;5.94
57468;BMP280;43311;51.196;7.518;2024-01-30T06:05:03;97916.50;;;5.99
57468;BMP280;43311;51.196;7.518;2024-01-30T06:07:29;97911.16;;;5.92
57468;BMP280;43311;51.196;7.518;2024-01-30T06:09:54;97918.09;;;6.04
57468;BMP280;43311;51.196;7.518;2024-01-30T06:12:19;97923.91;;;5.97
57468;BMP280;43311;51.196;7.518;2024-01-30T06:14:45;97914.25;;;5.98
57468;BMP280;43311;51.196;7.518;2024-01-30T06:17:10;97909.25;;;5.89
57468;BMP280;43311;51.196;7.518;2024-01-30T06:19:37;97926.19;;;5.99
57468;BMP280;43311;51.196;7.518;2024-01-30T06:22:04;97929.03;;;5.94
57468;BMP280;43311;51.196;7.518;2024-01-30T06:24:29;97918.63;;;5.94
57468;BMP280;43311;51.196;7.518;2024-01-30T06:26:55;97911.50;;;5.91
57468;BMP280;43311;51.196;7.518;2024-01-30T06:29:20;97912.66;;;5.93
57468;BMP280;43311;51.196;7.518;2024-01-30T06:31:46;97920.69;;;6.04
57468;BMP280;43311;51.196;7.518;2024-01-30T06:34:11;97911.66;;;5.98
57468;BMP280;43311;51.196;7.518;2024-01-30T06:36:37;97928.69;;;6.14
57468;BMP280;43311;51.196;7.518;2024-01-30T06:39:03;97917.09;;;6.11
57468;BMP280;43311;51.196;7.518;2024-01-30T06:41:28;97913.06;;;6.14
57468;BMP280;43311;51.196;7.518;2024-01-30T06:43:55;97916.44;;;6.14
57468;BMP280;43311;51.196;7.518;2024-01-30T06:46:20;97903.28;;;6.08
57468;BMP280;43311;51.196;7.518;2024-01-30T06:48:45;97916.16;;;6.19
57468;BMP280;43311;51.196;7.518;2024-01-30T06:51:11;97920.78;;;6.29
57468;BMP280;43311;51.196;7.518;2024-01-30T06:53:37;97911.75;;;6.23
57468;BMP280;43311;51.196;7.518;2024-01-30T06:56:03;97918.47;;;6.24
57468;BMP280;43311;51.196;7.518;2024-01-30T06:58:28;97912.03;;;6.18
57468;BMP280;43311;51.196;7.518;2024-01-30T07:00:54;97903.59;;;6.25
57468;BMP280;43311;51.196;7.518;2024-01-30T07:03:20;97912.31;;;6.36
57468;BMP280;43311;51.196;7.518;2024-01-30T07:05:45;97902.91;;;6.28
57468;BMP280;43311;51.196;7.518;2024-01-30T07:08:10;97891.72;;;6.27
57468;BMP280;43311;51.196;7.518;2024-01-30T07:10:36;97895.47;;;6.30
57468;BMP280;43311;51.196;7.518;2024-01-30T07:13:01;97898.56;;;6.35
57468;BMP280;43311;51.196;7.518;2024-01-30T07:15:31;97883.91;;;6.27
57468;BMP280;43311;51.196;7.518;2024-01-30T07:17:56;97891.16;;;6.37
57468;BMP280;43311;51.196;7.518;2024-01-30T07:20:21;97897.53;;;6.40
57468;BMP280;43311;51.196;7.518;2024-01-30T07:22:47;97920.41;;;6.50
57468;BMP280;43311;51.196;7.518;2024-01-30T07:25:13;97906.09;;;6.40
57468;BMP280;43311;51.196;7.518;2024-01-30T07:27:38;97924.28;;;6.59
57468;BMP280;43311;51.196;7.518;2024-01-30T07:30:04;97921.69;;;6.59
57468;BMP280;43311;51.196;7.518;2024-01-30T07:32:29;97909.28;;;6.53
57468;BMP280;43311;51.196;7.518;2024-01-30T07:34:55;97909.31;;;6.56
57468;BMP280;43311;51.196;7.518;2024-01-30T07:37:20;97920.69;;;6.67
57468;BMP280;43311;51.196;7.518;2024-01-30T07:39:46;97922.72;;;6.77
57468;BMP280;43311;51.196;7.518;2024-01-30T07:42:12;97932.97;;;6.89
57468;BMP280;43311;51.196;7.518;2024-01-30T07:44:37;97921.59;;;7.00
57468;BMP280;43311;51.196;7.518;2024-01-30T07:47:04;97913.72;;;6.97
57468;BMP280;43311;51.196;7.518;2024-01-30T07:49:30;97925.34;;;7.03
57468;BMP280;43311;51.196;7.518;2024-01-30T07:51:55;97907.59;;;6.86
57468;BMP280;43311;51.196;7.518;2024-01-30T07:54:20;97918.50;;;6.95
57468;BMP280;43311;51.196;7.518;2024-01-30T08:03:51;97918.13;;;6.93
57468;BMP280;43311;51.196;7.518;2024-01-30T08:06:17;97939.84;;;7.00
57468;BMP280;43311;51.196;7.518;2024-01-30T08:08:42;97947.84;;;7.11
57468;BMP280;43311;51.196;7.518;2024-01-30T08:11:08;97945.72;;;7.20
57468;BMP280;43311;51.196;7.518;2024-01-30T08:13:33;97951.34;;;7.22
57468;BMP280;43311;51.196;7.518;2024-01-30T08:15:58;97943.53;;;7.22
57468;BMP280;43311;51.196;7.518;2024-01-30T08:18:24;97937.94;;;7.23
57468;BMP280;43311;51.196;7.518;2024-01-30T08:20:49;97947.66;;;7.23
57468;BMP280;43311;51.196;7.518;2024-01-30T08:23:14;97948.03;;;7.25
57468;BMP280;43311;51.196;7.518;2024-01-30T08:25:39;97952.16;;;7.26
57468;BMP280;43311;51.196;7.518;2024-01-30T08:28:05;97952.50;;;7.24
57468;BMP280;43311;51.196;7.518;2024-01-30T08:30:30;97950.69;;;7.28
57468;BMP280;43311;51.196;7.518;2024-01-30T08:32:56;97950.84;;;7.39
57468;BMP280;43311;51.196;7.518;2024-01-30T08:35:21;97953.09;;;7.40
57468;BMP280;43311;51.196;7.518;2024-01-30T08:37:46;97950.50;;;7.40
57468;BMP280;43311;51.196;7.518;2024-01-30T08:40:12;97948.69;;;7.44
57468;BMP280;43311;51.196;7.518;2024-01-30T08:42:37;97956.97;;;7.49
57468;BMP280;43311;51.196;7.518;2024-01-30T08:45:03;97945.63;;;7.39
57468;BMP280;43311;51.196;7.518;2024-01-30T08:47:30;97958.75;;;7.45
57468;BMP280;43311;51.196;7.518;2024-01-30T08:49:55;97963.78;;;7.57
57468;BMP280;43311;51.196;7.518;2024-01-30T08:52:20;97951.75;;;7.49
57468;BMP280;43311;51.196;7.518;2024-01-30T08:54:46;97940.91;;;7.47
57468;BMP280;43311;51.196;7.518;2024-01-30T08:57:11;97949.63;;;7.58
57468;BMP280;43311;51.196;7.518;2024-01-30T08:59:36;97958.59;;;7.61
57468;BMP280;43311;51.196;7.518;2024-01-30T09:02:02;97937.59;;;7.50
57468;BMP280;43311;51.196;7.518;2024-01-30T09:04:28;97942.19;;;7.60
57468;BMP280;43311;51.196;7.518;2024-01-30T09:06:54;97938.19;;;7.66
57468;BMP280;43311;51.196;7.518;2024-01-30T09:09:19;97943.44;;;7.70
57468;BMP280;43311;51.196;7.518;2024-01-30T09:11:44;97937.44;;;7.69
57468;BMP280;43311;51.196;7.518;2024-01-30T09:14:10;97944.63;;;7.76
57468;BMP280;43311;51.196;7.518;2024-01-30T09:16:35;97955.16;;;7.83
57468;BMP280;43311;51.196;7.518;2024-01-30T09:19:01;97939.28;;;7.65
57468;BMP280;43311;51.196;7.518;2024-01-30T09:21:26;97939.38;;;7.72
57468;BMP280;43311;51.196;7.518;2024-01-30T09:23:54;97968.41;;;7.97
57468;BMP280;43311;51.196;7.518;2024-01-30T09:26:19;97975.88;;;7.98
57468;BMP280;43311;51.196;7.518;2024-01-30T09:28:45;97966.47;;;7.90
57468;BMP280;43311;51.196;7.518;2024-01-30T09:31:10;97986.03;;;8.07
57468;BMP280;43311;51.196;7.518;2024-01-30T09:33:36;97974.94;;;8.13
57468;BMP280;43311;51.196;7.518;2024-01-30T09:36:01;97981.75;;;8.21
57468;BMP280;43311;51.196;7.518;2024-01-30T09:38:26;97979.63;;;8.30
57468;BMP280;43311;51.196;7.518;2024-01-30T09:40:54;97993.88;;;8.36
57468;BMP280;43311;51.196;7.518;2024-01-30T09:43:23;97987.84;;;8.32
57468;BMP280;43311;51.196;7.518;2024-01-30T09:45:53;97981.50;;;8.29
57468;BMP280;43311;51.196;7.518;2024-01-30T09:48:19;98001.16;;;8.53
57468;BMP280;43311;51.196;7.518;2024-01-30T09:50:44;97988.88;;;8.57
57468;BMP280;43311;51.196;7.518;2024-01-30T09:53:11;97958.56;;;8.52
57468;BMP280;43311;51.196;7.518;2024-01-30T09:55:38;97985.31;;;8.75
57468;BMP280;43311;51.196;7.518;2024-01-30T09:58:07;97994.31;;;8.78
57468;BMP280;43311;51.196;7.518;2024-01-30T10:00:33;98011.66;;;8.96
57468;BMP280;43311;51.196;7.518;2024-01-30T10:02:58;98006.47;;;8.99
57468;BMP280;43311;51.196;7.518;2024-01-30T10:05:26;97993.13;;;9.15
57468;BMP280;43311;51.196;7.518;2024-01-30T10:07:53;98007.03;;;9.22
57468;BMP280;43311;51.196;7.518;2024-01-30T10:10:21;97996.19;;;9.20
57468;BMP280;43311;51.196;7.518;2024-01-30T10:12:47;97995.38;;;9.16
57468;BMP280;43311;51.196;7.518;2024-01-30T10:15:14;97981.13;;;9.10
57468;BMP280;43311;51.196;7.518;2024-01-30T10:17:39;98002.56;;;9.26
57468;BMP280;43311;51.196;7.518;2024-01-30T10:20:05;97998.50;;;9.32
57468;BMP280;43311;51.196;7.518;2024-01-30T10:22:30;97987.69;;;9.37
57468;BMP280;43311;51.196;7.518;2024-01-30T10:24:56;98002.66;;;9.40
57468;BMP280;43311;51.196;7.518;2024-01-30T10:27:27;98000.00;;;9.33
57468;BMP280;43311;51.196;7.518;2024-01-30T10:29:55;98007.50;;;9.38
57468;BMP280;43311;51.196;7.518;2024-01-30T10:32:20;98017.25;;;9.38
57468;BMP280;43311;51.196;7.518;2024-01-30T10:34:46;98010.03;;;9.24
57468;BMP280;43311;51.196;7.518;2024-01-30T10:37:12;98002.22;;;9.28
57468;BMP280;43311;51.196;7.518;2024-01-30T10:39:41;98012.00;;;9.38
57468;BMP280;43311;51.196;7.518;2024-01-30T10:42:11;97993.22;;;9.25
57468;BMP280;43311;51.196;7.518;2024-01-30T10:44:44;97988.34;;;9.20
57468;BMP280;43311;51.196;7.518;2024-01-30T10:47:12;97993.63;;;9.31
57468;BMP280;43311;51.196;7.518;2024-01-30T10:49:41;97990.28;;;9.34
57468;BMP280;43311;51.196;7.518;2024-01-30T10:52:09;97979.94;;;9.51
57468;BMP280;43311;51.196;7.518;2024-01-30T10:54:36;97998.13;;;9.91
57468;BMP280;43311;51.196;7.518;2024-01-30T10:57:02;98000.50;;;10.10
57468;BMP280;43311;51.196;7.518;2024-01-30T10:59:29;97996.78;;;10.21
57468;BMP280;43311;51.196;7.518;2024-01-30T11:01:57;97991.56;;;10.31
57468;BMP280;43311;51.196;7.518;2024-01-30T11:04:23;98002.06;;;10.31
57468;BMP280;43311;51.196;7.518;2024-01-30T11:06:50;97996.47;;;10.36
57468;BMP280;43311;51.196;7.518;2024-01-30T11:09:17;97990.13;;;10.44
57468;BMP280;43311;51.196;7.518;2024-01-30T11:11:56;97981.13;;;10.45
57468;BMP280;43311;51.196;7.518;2024-01-30T11:14:29;97980.38;;;10.41
57468;BMP280;43311;51.196;7.518;2024-01-30T11:16:58;97990.13;;;10.51
57468;BMP280;43311;51.196;7.518;2024-01-30T11:19:25;97990.50;;;10.53
57468;BMP280;43311;51.196;7.518;2024-01-30T11:21:52;97980.03;;;10.57
57468;BMP280;43311;51.196;7.518;2024-01-30T11:24:20;97966.88;;;10.46
57468;BMP280;43311;51.196;7.518;2024-01-30T11:26:48;97974.03;;;10.63
57468;BMP280;43311;51.196;7.518;2024-01-30T11:29:14;97983.44;;;10.75
57468;BMP280;43311;51.196;7.518;2024-01-30T11:31:51;97996.19;;;10.83
57468;BMP280;43311;51.196;7.518;2024-01-30T11:34:17;97990.91;;;10.59
57468;BMP280;43311;51.196;7.518;2024-01-30T11:36:44;97993.53;;;10.62
57468;BMP280;43311;51.196;7.518;2024-01-30T11:39:11;97993.16;;;10.60
57468;BMP280;43311;51.196;7.518;2024-01-30T11:41:38;97994.66;;;10.68
57468;BMP280;43311;51.196;7.518;2024-01-30T11:44:05;97990.94;;;10.76
57468;BMP280;43311;51.196;7.518;2024-01-30T11:46:30;97988.66;;;10.68
57468;BMP280;43311;51.196;7.518;2024-01-30T11:48:55;97974.03;;;10.63
57468;BMP280;43311;51.196;7.518;2024-01-30T11:51:21;97985.31;;;10.78
57468;BMP280;43311;51.196;7.518;2024-01-30T11:53:49;97989.06;;;10.87
57468;BMP280;43311;51.196;7.518;2024-01-30T11:56:15;97954.94;;;10.66
57468;BMP280;43311;51.196;7.518;2024-01-30T11:58:42;97977.06;;;10.86
57468;BMP280;43311;51.196;7.518;2024-01-30T12:01:09;97982.72;;;10.88
57468;BMP280;43311;51.196;7.518;2024-01-30T12:03:35;97971.44;;;10.77
57468;BMP280;43311;51.196;7.518;2024-01-30T12:06:02;97985.69;;;10.90
57468;BMP280;43311;51.196;7.518;2024-01-30T12:08:28;97948.94;;;10.73
57468;BMP280;43311;51.196;7.518;2024-01-30T12:10:57;97987.22;;;11.08
57468;BMP280;43311;51.196;7.518;2024-01-30T12:13:28;97980.47;;;11.18
57468;BMP280;43311;51.196;7.518;2024-01-30T12:15:54;97981.22;;;11.18
57468;BMP280;43311;51.196;7.518;2024-01-30T12:18:19;97975.56;;;11.30
57468;BMP280;43311;51.196;7.518;2024-01-30T12:20:45;97972.22;;;11.23
57468;BMP280;43311;51.196;7.518;2024-01-30T12:23:11;97978.59;;;11.15
57468;BMP280;43311;51.196;7.518;2024-01-30T12:25:37;97963.94;;;11.14
57468;BMP280;43311;51.196;7.518;2024-01-30T12:28:03;97991.34;;;11.37
57468;BMP280;43311;51.196;7.518;2024-01-30T12:30:29;97975.97;;;11.29
57468;BMP280;43311;51.196;7.518;2024-01-30T12:32:55;97988.72;;;11.34
57468;BMP280;43311;51.196;7.518;2024-01-30T12:35:20;97982.31;;;11.14
57468;BMP280;43311;51.196;7.518;2024-01-30T12:37:47;97992.06;;;11.27
57468;BMP280;43311;51.196;7.518;2024-01-30T12:40:16;97987.19;;;11.19
57468;BMP280;43311;51.196;7.518;2024-01-30T12:42:43;97996.97;;;11.25
57468;BMP280;43311;51.196;7.518;2024-01-30T12:45:08;97998.44;;;11.33
57468;BMP280;43311;51.196;7.518;2024-01-30T12:47:34;98001.47;;;11.42
57468;BMP280;43311;51.196;7.518;2024-01-30T12:50:00;98003.69;;;11.37
57468;BMP280;43311;51.196;7.518;2024-01-30T12:52:25;97988.72;;;11.30
57468;BMP280;43311;51.196;7.518;2024-01-30T12:54:51;98000.69;;;11.42
57468;BMP280;43311;51.196;7.518;2024-01-30T12:57:17;97990.56;;;11.37
57468;BMP280;43311;51.196;7.518;2024-01-30T12:59:44;98007.84;;;11.38
57468;BMP280;43311;51.196;7.518;2024-01-30T13:02:10;97984.19;;;11.38
57468;BMP280;43311;51.196;7.518;2024-01-30T13:04:36;98004.09;;;11.42
57468;BMP280;43311;51.196;7.518;2024-01-30T13:07:02;98011.97;;;11.42
57468;BMP280;43311;51.196;7.518;2024-01-30T13:09:29;98005.56;;;11.47
57468;BMP280;43311;51.196;7.518;2024-01-30T13:11:54;98005.19;;;11.34
57468;BMP280;43311;51.196;7.518;2024-01-30T13:14:20;98012.69;;;11.43
57468;BMP280;43311;51.196;7.518;2024-01-30T13:16:45;98011.59;;;11.51
57468;BMP280;43311;51.196;7.518;2024-01-30T13:19:11;98013.09;;;11.48
57468;BMP280;43311;51.196;7.518;2024-01-30T13:21:36;98005.19;;;11.48
57468;BMP280;43311;51.196;7.518;2024-01-30T13:24:01;98011.22;;;11.52
57468;BMP280;43311;51.196;7.518;2024-01-30T13:26:27;98002.22;;;11.60
57468;BMP280;43311;51.196;7.518;2024-01-30T13:28:52;98007.44;;;11.77
57468;BMP280;43311;51.196;7.518;2024-01-30T13:31:19;98011.16;;;11.90
57468;BMP280;43311;51.196;7.518;2024-01-30T13:33:44;98014.19;;;11.78
57468;BMP280;43311;51.196;7.518;2024-01-30T13:36:11;97996.56;;;11.65
57468;BMP280;43311;51.196;7.518;2024-01-30T13:38:37;98011.19;;;11.76
57468;BMP280;43311;51.196;7.518;2024-01-30T13:41:03;98016.47;;;11.62
57468;BMP280;43311;51.196;7.518;2024-01-30T13:43:28;98025.47;;;11.61
57468;BMP280;43311;51.196;7.518;2024-01-30T13:45:54;98016.09;;;11.54
57468;BMP280;43311;51.196;7.518;2024-01-30T13:48:20;98020.59;;;11.43
57468;BMP280;43311;51.196;7.518;2024-01-30T13:50:45;98017.97;;;11.29
57468;BMP280;43311;51.196;7.518;2024-01-30T13:53:11;98004.44;;;11.20
57468;BMP280;43311;51.196;7.518;2024-01-30T13:55:37;98017.22;;;11.11
57468;BMP280;43311;51.196;7.518;2024-01-30T13:58:03;98013.06;;;10.99
57468;BMP280;43311;51.196;7.518;2024-01-30T14:00:28;98021.72;;;11.00
57468;BMP280;43311;51.196;7.518;2024-01-30T14:02:54;98017.19;;;10.90
57468;BMP280;43311;51.196;7.518;2024-01-30T14:05:23;98022.44;;;10.97
57468;BMP280;43311;51.196;7.518;2024-01-30T14:07:49;98001.03;;;10.67
57468;BMP280;43311;51.196;7.518;2024-01-30T14:10:15;98028.41;;;10.80
57468;BMP280;43311;51.196;7.518;2024-01-30T14:12:42;98016.44;;;10.83
57468;BMP280;43311;51.196;7.518;2024-01-30T14:15:08;98033.31;;;10.92
57468;BMP280;43311;51.196;7.518;2024-01-30T14:17:35;98024.66;;;10.81
57468;BMP280;43311;51.196;7.518;2024-01-30T14:20:02;98024.66;;;10.67
57468;BMP280;43311;51.196;7.518;2024-01-30T14:22:28;98041.50;;;10.66
57468;BMP280;43311;51.196;7.518;2024-01-30T14:24:53;98041.09;;;10.57
57468;BMP280;43311;51.196;7.518;2024-01-30T14:27:19;98037.38;;;10.62
57468;BMP280;43311;51.196;7.518;2024-01-30T14:29:44;98032.09;;;10.51
57468;BMP280;43311;51.196;7.518;2024-01-30T14:32:09;98035.06;;;10.46
57468;BMP280;43311;51.196;7.518;2024-01-30T14:34:35;98027.19;;;10.46
57468;BMP280;43311;51.196;7.518;2024-01-30T14:37:00;98030.94;;;10.42
57468;BMP280;43311;51.196;7.518;2024-01-30T14:39:26;98037.66;;;10.39
57468;BMP280;43311;51.196;7.518;2024-01-30T14:41:51;98029.06;;;10.39
57468;BMP280;43311;51.196;7.518;2024-01-30T14:44:16;98043.28;;;10.41
57468;BMP280;43311;51.196;7.518;2024-01-30T14:46:42;98036.88;;;10.28
57468;BMP280;43311;51.196;7.518;2024-01-30T14:49:08;98032.78;;;10.27
57468;BMP280;43311;51.196;7.518;2024-01-30T14:51:35;98031.63;;;10.25
57468;BMP280;43311;51.196;7.518;2024-01-30T14:54:00;98042.16;;;10.35
57468;BMP280;43311;51.196;7.518;2024-01-30T14:56:27;98038.03;;;10.34
57468;BMP280;43311;51.196;7.518;2024-01-30T14:58:52;98029.75;;;10.22
57468;BMP280;43311;51.196;7.518;2024-01-30T15:01:18;98041.78;;;10.33
57468;BMP280;43311;51.196;7.518;2024-01-30T15:03:44;98029.00;;;10.22
57468;BMP280;43311;51.196;7.518;2024-01-30T15:06:12;98056.00;;;10.39
57468;BMP280;43311;51.196;7.518;2024-01-30T15:08:38;98044.75;;;10.28
57468;BMP280;43311;51.196;7.518;2024-01-30T15:11:03;98049.28;;;10.38
57468;BMP280;43311;51.196;7.518;2024-01-30T15:13:29;98049.63;;;10.37
57468;BMP280;43311;51.196;7.518;2024-01-30T15:15:55;98055.63;;;10.34
57468;BMP280;43311;51.196;7.518;2024-01-30T15:18:20;98059.00;;;10.34
57468;BMP280;43311;51.196;7.518;2024-01-30T15:20:46;98031.25;;;10.23
57468;BMP280;43311;51.196;7.518;2024-01-30T15:23:11;98052.63;;;10.35
57468;BMP280;43311;51.196;7.518;2024-01-30T15:25:36;98054.50;;;10.31
57468;BMP280;43311;51.196;7.518;2024-01-30T15:28:02;98063.84;;;10.29
57468;BMP280;43311;51.196;7.518;2024-01-30T15:30:27;98049.97;;;10.28
57468;BMP280;43311;51.196;7.518;2024-01-30T15:32:53;98053.34;;;10.22
57468;BMP280;43311;51.196;7.518;2024-01-30T15:35:18;98052.25;;;10.30
57468;BMP280;43311;51.196;7.518;2024-01-30T15:37:44;98050.72;;;10.22
57468;BMP280;43311;51.196;7.518;2024-01-30T15:40:10;98055.22;;;10.28
57468;BMP280;43311;51.196;7.518;2024-01-30T15:42:36;98071.75;;;10.39
57468;BMP280;43311;51.196;7.518;2024-01-30T15:45:02;98075.47;;;10.31
57468;BMP280;43311;51.196;7.518;2024-01-30T15:47:28;98068.34;;;10.28
57468;BMP280;43311;51.196;7.518;2024-01-30T15:49:54;98075.47;;;10.31
57468;BMP280;43311;51.196;7.518;2024-01-30T15:52:19;98050.69;;;10.19
57468;BMP280;43311;51.196;7.518;2024-01-30T15:54:46;98082.94;;;10.29
57468;BMP280;43311;51.196;7.518;2024-01-30T15:57:12;98074.69;;;10.24
57468;BMP280;43311;51.196;7.518;2024-01-30T15:59:37;98075.34;;;10.07
57468;BMP280;43311;51.196;7.518;2024-01-30T16:02:03;98070.50;;;10.13
57468;BMP280;43311;51.196;7.518;2024-01-30T16:04:28;98077.66;;;10.19
57468;BMP280;43311;51.196;7.518;2024-01-30T16:06:54;98079.47;;;10.12
57468;BMP280;43311;51.196;7.518;2024-01-30T16:09:19;98082.84;;;10.09
57468;BMP280;43311;51.196;7.518;2024-01-30T16:11:44;98092.59;;;10.12
57468;BMP280;43311;51.196;7.518;2024-01-30T16:14:10;98078.72;;;10.08
57468;BMP280;43311;51.196;7.518;2024-01-30T16:16:35;98076.84;;;10.05
57468;BMP280;43311;51.196;7.518;2024-01-30T16:19:01;98097.06;;;10.08
57468;BMP280;43311;51.196;7.518;2024-01-30T16:21:27;98081.97;;;9.94
57468;BMP280;43311;51.196;7.518;2024-01-30T16:23:52;98097.75;;;9.98
57468;BMP280;43311;51.196;7.518;2024-01-30T16:26:19;98103.34;;;9.96
57468;BMP280;43311;51.196;7.518;2024-01-30T16:28:44;98112.69;;;9.94
57468;BMP280;43311;51.196;7.518;2024-01-30T16:31:09;98108.09;;;9.84
57468;BMP280;43311;51.196;7.518;2024-01-30T16:33:35;98101.34;;;9.76
57468;BMP280;43311;51.196;7.518;2024-01-30T16:36:00;98114.47;;;9.83
57468;BMP280;43311;51.196;7.518;2024-01-30T16:38:26;98101.34;;;9.83
57468;BMP280;43311;51.196;7.518;2024-01-30T16:40:51;98112.56;;;9.76
57468;BMP280;43311;51.196;7.518;2024-01-30T16:43:16;98121.53;;;9.75
57468;BMP280;43311;51.196;7.518;2024-01-30T16:45:42;98119.22;;;9.67
57468;BMP280;43311;51.196;7.518;2024-01-30T16:48:07;98121.44;;;9.65
57468;BMP280;43311;51.196;7.518;2024-01-30T16:50:33;98135.66;;;9.64
57468;BMP280;43311;51.196;7.518;2024-01-30T16:52:58;98143.16;;;9.65
57468;BMP280;43311;51.196;7.518;2024-01-30T16:55:23;98126.59;;;9.54
57468;BMP280;43311;51.196;7.518;2024-01-30T16:57:51;98145.22;;;9.46
57468;BMP280;43311;51.196;7.518;2024-01-30T17:00:17;98150.47;;;9.46
57468;BMP280;43311;51.196;7.518;2024-01-30T17:02:42;98145.81;;;9.29
57468;BMP280;43311;51.196;7.518;2024-01-30T17:05:09;98160.50;;;9.37
57468;BMP280;43311;51.196;7.518;2024-01-30T17:07:34;98173.47;;;9.27
57468;BMP280;43311;51.196;7.518;2024-01-30T17:10:01;98182.78;;;9.24
57468;BMP280;43311;51.196;7.518;2024-01-30T17:12:26;98183.94;;;9.27
57468;BMP280;43311;51.196;7.518;2024-01-30T17:14:51;98182.63;;;9.10
57468;BMP280;43311;51.196;7.518;2024-01-30T17:17:16;98197.31;;;9.18
57468;BMP280;43311;51.196;7.518;2024-01-30T17:19:42;98194.19;;;9.09
57468;BMP280;43311;51.196;7.518;2024-01-30T17:22:08;98192.63;;;9.01
57468;BMP280;43311;51.196;7.518;2024-01-30T17:24:34;98197.78;;;8.94
57468;BMP280;43311;51.196;7.518;2024-01-30T17:26:59;98203.78;;;8.95
57468;BMP280;43311;51.196;7.518;2024-01-30T17:29:25;98210.00;;;8.87
57468;BMP280;43311;51.196;7.518;2024-01-30T17:32:01;98195.66;;;8.74
57468;BMP280;43311;51.196;7.518;2024-01-30T17:34:28;98207.25;;;8.77
57468;BMP280;43311;51.196;7.518;2024-01-30T17:36:54;98210.84;;;8.65
57468;BMP280;43311;51.196;7.518;2024-01-30T17:39:19;98212.22;;;8.56
57468;BMP280;43311;51.196;7.518;2024-01-30T17:41:45;98199.88;;;8.53
57468;BMP280;43311;51.196;7.518;2024-01-30T17:44:10;98223.41;;;8.56
57468;BMP280;43311;51.196;7.518;2024-01-30T17:46:36;98236.53;;;8.60
57468;BMP280;43311;51.196;7.518;2024-01-30T17:49:02;98224.81;;;8.47
57468;BMP280;43311;51.196;7.518;2024-01-30T17:51:29;98239.72;;;8.46
57468;BMP280;43311;51.196;7.518;2024-01-30T17:53:54;98244.41;;;8.34
57468;BMP280;43311;51.196;7.518;2024-01-30T17:56:21;98262.94;;;8.51
57468;BMP280;43311;51.196;7.518;2024-01-30T17:58:46;98241.78;;;8.34
57468;BMP280;43311;51.196;7.518;2024-01-30T18:01:11;98247.81;;;8.38
57468;BMP280;43311;51.196;7.518;2024-01-30T18:03:37;98256.75;;;8.37
57468;BMP280;43311;51.196;7.518;2024-01-30T18:06:02;98237.84;;;8.21
57468;BMP280;43311;51.196;7.518;2024-01-30T18:08:31;98259.84;;;8.42
57468;BMP280;43311;51.196;7.518;2024-01-30T18:10:57;98250.38;;;8.12
57468;BMP280;43311;51.196;7.518;2024-01-30T18:13:23;98242.84;;;8.07
57468;BMP280;43311;51.196;7.518;2024-01-30T18:15:48;98240.91;;;8.04
57468;BMP280;43311;51.196;7.518;2024-01-30T18:18:14;98251.22;;;8.16
57468;BMP280;43311;51.196;7.518;2024-01-30T18:20:41;98257.84;;;8.13
57468;BMP280;43311;51.196;7.518;2024-01-30T18:23:06;98248.06;;;8.07
57468;BMP280;43311;51.196;7.518;2024-01-30T18:25:32;98255.06;;;8.03
57468;BMP280;43311;51.196;7.518;2024-01-30T18:27:57;98272.31;;;8.08
57468;BMP280;43311;51.196;7.518;2024-01-30T18:30:23;98275.56;;;8.01
57468;BMP280;43311;51.196;7.518;2024-01-30T18:32:48;98281.25;;;8.07
57468;BMP280;43311;51.196;7.518;2024-01-30T18:35:14;98270.34;;;8.01
57468;BMP280;43311;51.196;7.518;2024-01-30T18:37:40;98263.06;;;7.91
57468;BMP280;43311;51.196;7.518;2024-01-30T18:40:06;98261.09;;;7.85
57468;BMP280;43311;51.196;7.518;2024-01-30T18:42:31;98278.56;;;7.81
57468;BMP280;43311;51.196;7.518;2024-01-30T18:44:57;98266.41;;;7.69
57468;BMP280;43311;51.196;7.518;2024-01-30T18:47:23;98290.56;;;7.85